Terminal Aerodrome Forecast
Issued by NWS

Home | Current Version | Previous Version | Graphics & Text | Print | Product List | Glossary On
Versions: 1 2 3 4 5 6 7 8 9 10 11 12 13 14 15 16 17 18 19 20 21
000
FTUS43 KBIS 251900 AAA
TAFDIK
TAF AMD
KDIK 251938Z 2520/2618 28015KT 6SM -SN BR OVC007
     FM252200 30020G29KT P6SM -SN OVC010
     FM260000 32022G31KT 6SM BLSN OVC025
     FM260400 34018G26KT P6SM OVC010
     FM260700 34013KT P6SM OVC008
     FM261700 09005KT P6SM BKN015=

USA.gov is the U.S. government's official web portal to all federal, state and local government web resources and services.